sensor_id;sensor_type;location;lat;lon;timestamp;temperature;humidity
26254;DHT22;53339;51.378;0.094;2023-08-12T00:00:55;17.90;79.20
26254;DHT22;53339;51.378;0.094;2023-08-12T00:03:30;18.00;79.10
26254;DHT22;53339;51.378;0.094;2023-08-12T00:06:03;18.00;79.10
26254;DHT22;53339;51.378;0.094;2023-08-12T00:08:39;18.00;79.00
26254;DHT22;53339;51.378;0.094;2023-08-12T00:11:07;18.00;78.90
26254;DHT22;53339;51.378;0.094;2023-08-12T00:13:40;17.90;78.90
26254;DHT22;53339;51.378;0.094;2023-08-12T00:16:12;17.90;78.80
26254;DHT22;53339;51.378;0.094;2023-08-12T00:18:41;17.90;78.70
26254;DHT22;53339;51.378;0.094;2023-08-12T00:21:11;17.90;78.70
26254;DHT22;53339;51.378;0.094;2023-08-12T00:23:40;17.90;78.60
26254;DHT22;53339;51.378;0.094;2023-08-12T00:26:09;17.90;78.60
26254;DHT22;53339;51.378;0.094;2023-08-12T00:28:41;17.90;78.70
26254;DHT22;53339;51.378;0.094;2023-08-12T00:31:10;17.90;78.60
26254;DHT22;53339;51.378;0.094;2023-08-12T00:33:40;17.90;78.60
26254;DHT22;53339;51.378;0.094;2023-08-12T00:36:12;18.00;78.50
26254;DHT22;53339;51.378;0.094;2023-08-12T00:38:40;17.90;78.60
26254;DHT22;53339;51.378;0.094;2023-08-12T00:41:17;17.90;78.60
26254;DHT22;53339;51.378;0.094;2023-08-12T00:43:53;18.00;78.60
26254;DHT22;53339;51.378;0.094;2023-08-12T00:46:24;17.90;78.60
26254;DHT22;53339;51.378;0.094;2023-08-12T00:48:54;17.90;78.60
26254;DHT22;53339;51.378;0.094;2023-08-12T00:51:28;17.90;78.60
26254;DHT22;53339;51.378;0.094;2023-08-12T00:53:59;17.80;78.70
26254;DHT22;53339;51.378;0.094;2023-08-12T00:56:36;17.80;78.70
26254;DHT22;53339;51.378;0.094;2023-08-12T00:59:09;17.70;78.70
26254;DHT22;53339;51.378;0.094;2023-08-12T01:01:46;17.70;78.70
26254;DHT22;53339;51.378;0.094;2023-08-12T01:04:16;17.70;78.80
26254;DHT22;53339;51.378;0.094;2023-08-12T01:06:45;17.70;78.80
26254;DHT22;53339;51.378;0.094;2023-08-12T01:09:15;17.70;78.80
26254;DHT22;53339;51.378;0.094;2023-08-12T01:12:06;17.70;78.70
26254;DHT22;53339;51.378;0.094;2023-08-12T01:15:16;17.60;78.80
26254;DHT22;53339;51.378;0.094;2023-08-12T01:17:45;17.60;78.80
26254;DHT22;53339;51.378;0.094;2023-08-12T01:20:21;17.60;78.60
26254;DHT22;53339;51.378;0.094;2023-08-12T01:23:30;17.60;78.60
26254;DHT22;53339;51.378;0.094;2023-08-12T01:26:00;17.60;78.50
26254;DHT22;53339;51.378;0.094;2023-08-12T01:28:38;17.60;78.50
26254;DHT22;53339;51.378;0.094;2023-08-12T01:31:16;17.50;78.50
26254;DHT22;53339;51.378;0.094;2023-08-12T01:34:11;17.60;78.50
26254;DHT22;53339;51.378;0.094;2023-08-12T01:36:46;17.50;78.50
26254;DHT22;53339;51.378;0.094;2023-08-12T01:39:19;17.50;78.50
26254;DHT22;53339;51.378;0.094;2023-08-12T01:41:51;17.50;78.50
26254;DHT22;53339;51.378;0.094;2023-08-12T01:44:25;17.50;78.60
26254;DHT22;53339;51.378;0.094;2023-08-12T01:46:54;17.50;78.70
26254;DHT22;53339;51.378;0.094;2023-08-12T01:49:29;17.50;78.80
26254;DHT22;53339;51.378;0.094;2023-08-12T01:51:58;17.40;78.90
26254;DHT22;53339;51.378;0.094;2023-08-12T01:54:37;17.40;79.00
26254;DHT22;53339;51.378;0.094;2023-08-12T01:57:07;17.40;79.10
26254;DHT22;53339;51.378;0.094;2023-08-12T01:59:44;17.40;79.20
26254;DHT22;53339;51.378;0.094;2023-08-12T02:02:15;17.30;79.40
26254;DHT22;53339;51.378;0.094;2023-08-12T02:04:44;17.30;79.80
26254;DHT22;53339;51.378;0.094;2023-08-12T02:07:14;17.20;79.90
26254;DHT22;53339;51.378;0.094;2023-08-12T02:09:43;17.20;80.00
26254;DHT22;53339;51.378;0.094;2023-08-12T02:12:17;17.10;80.10
26254;DHT22;53339;51.378;0.094;2023-08-12T02:14:46;17.10;80.20
26254;DHT22;53339;51.378;0.094;2023-08-12T02:17:15;17.10;80.20
26254;DHT22;53339;51.378;0.094;2023-08-12T02:19:54;17.00;80.40
26254;DHT22;53339;51.378;0.094;2023-08-12T02:22:23;16.90;80.60
26254;DHT22;53339;51.378;0.094;2023-08-12T02:24:53;16.90;80.80
26254;DHT22;53339;51.378;0.094;2023-08-12T02:27:22;16.80;80.90
26254;DHT22;53339;51.378;0.094;2023-08-12T02:29:52;16.70;81.00
26254;DHT22;53339;51.378;0.094;2023-08-12T02:32:23;16.70;81.00
26254;DHT22;53339;51.378;0.094;2023-08-12T02:34:54;16.70;81.00
26254;DHT22;53339;51.378;0.094;2023-08-12T02:37:24;16.60;81.20
26254;DHT22;53339;51.378;0.094;2023-08-12T02:39:55;16.60;81.30
26254;DHT22;53339;51.378;0.094;2023-08-12T02:42:30;16.50;81.60
26254;DHT22;53339;51.378;0.094;2023-08-12T02:45:06;16.40;81.70
26254;DHT22;53339;51.378;0.094;2023-08-12T02:47:36;16.40;81.90
26254;DHT22;53339;51.378;0.094;2023-08-12T02:50:09;16.30;81.90
26254;DHT22;53339;51.378;0.094;2023-08-12T02:52:37;16.20;81.90
26254;DHT22;53339;51.378;0.094;2023-08-12T02:55:12;16.20;82.00
26254;DHT22;53339;51.378;0.094;2023-08-12T02:57:43;16.20;82.10
26254;DHT22;53339;51.378;0.094;2023-08-12T03:00:14;16.10;82.10
26254;DHT22;53339;51.378;0.094;2023-08-12T03:02:43;16.10;82.30
26254;DHT22;53339;51.378;0.094;2023-08-12T03:05:15;16.10;82.20
26254;DHT22;53339;51.378;0.094;2023-08-12T03:07:47;16.10;82.20
26254;DHT22;53339;51.378;0.094;2023-08-12T03:10:16;16.10;82.40
26254;DHT22;53339;51.378;0.094;2023-08-12T03:12:46;16.10;82.40
26254;DHT22;53339;51.378;0.094;2023-08-12T03:15:15;16.00;82.40
26254;DHT22;53339;51.378;0.094;2023-08-12T03:17:44;16.10;82.60
26254;DHT22;53339;51.378;0.094;2023-08-12T03:20:13;16.00;82.60
26254;DHT22;53339;51.378;0.094;2023-08-12T03:22:42;16.00;82.60
26254;DHT22;53339;51.378;0.094;2023-08-12T03:25:22;16.00;82.60
26254;DHT22;53339;51.378;0.094;2023-08-12T03:27:55;16.00;82.70
26254;DHT22;53339;51.378;0.094;2023-08-12T03:30:28;15.90;82.80
26254;DHT22;53339;51.378;0.094;2023-08-12T03:33:04;15.90;82.80
26254;DHT22;53339;51.378;0.094;2023-08-12T03:35:39;15.80;83.00
26254;DHT22;53339;51.378;0.094;2023-08-12T03:38:08;15.80;83.20
26254;DHT22;53339;51.378;0.094;2023-08-12T03:40:41;15.80;83.20
26254;DHT22;53339;51.378;0.094;2023-08-12T03:43:13;15.70;83.30
26254;DHT22;53339;51.378;0.094;2023-08-12T03:45:43;15.70;83.40
26254;DHT22;53339;51.378;0.094;2023-08-12T03:48:16;15.70;83.40
26254;DHT22;53339;51.378;0.094;2023-08-12T03:50:48;15.70;83.60
26254;DHT22;53339;51.378;0.094;2023-08-12T03:53:17;15.70;83.60
26254;DHT22;53339;51.378;0.094;2023-08-12T03:55:59;15.70;83.70
26254;DHT22;53339;51.378;0.094;2023-08-12T03:58:30;15.70;83.70
26254;DHT22;53339;51.378;0.094;2023-08-12T04:01:03;15.80;83.80
26254;DHT22;53339;51.378;0.094;2023-08-12T04:03:33;15.80;83.70
26254;DHT22;53339;51.378;0.094;2023-08-12T04:06:12;15.90;83.70
26254;DHT22;53339;51.378;0.094;2023-08-12T04:08:41;15.90;83.60
26254;DHT22;53339;51.378;0.094;2023-08-12T04:11:15;15.90;83.60
26254;DHT22;53339;51.378;0.094;2023-08-12T04:13:45;16.00;83.60
26254;DHT22;53339;51.378;0.094;2023-08-12T04:16:17;16.00;83.50
26254;DHT22;53339;51.378;0.094;2023-08-12T04:18:48;16.10;83.50
26254;DHT22;53339;51.378;0.094;2023-08-12T04:21:17;16.10;83.50
26254;DHT22;53339;51.378;0.094;2023-08-12T04:23:46;16.20;83.40
26254;DHT22;53339;51.378;0.094;2023-08-12T04:26:15;16.20;83.40
26254;DHT22;53339;51.378;0.094;2023-08-12T04:28:45;16.30;83.30
26254;DHT22;53339;51.378;0.094;2023-08-12T04:31:14;16.20;83.30
26254;DHT22;53339;51.378;0.094;2023-08-12T04:33:46;16.30;83.10
26254;DHT22;53339;51.378;0.094;2023-08-12T04:36:17;16.30;83.00
26254;DHT22;53339;51.378;0.094;2023-08-12T04:38:49;16.40;82.90
26254;DHT22;53339;51.378;0.094;2023-08-12T04:41:21;16.40;82.80
26254;DHT22;53339;51.378;0.094;2023-08-12T04:43:54;16.40;82.80
26254;DHT22;53339;51.378;0.094;2023-08-12T04:46:26;16.40;82.70
26254;DHT22;53339;51.378;0.094;2023-08-12T04:48:54;16.40;82.70
26254;DHT22;53339;51.378;0.094;2023-08-12T04:51:22;16.40;82.70
26254;DHT22;53339;51.378;0.094;2023-08-12T04:53:54;16.40;82.70
26254;DHT22;53339;51.378;0.094;2023-08-12T04:56:24;16.50;82.70
26254;DHT22;53339;51.378;0.094;2023-08-12T04:58:54;16.60;82.70
26254;DHT22;53339;51.378;0.094;2023-08-12T05:01:23;16.60;82.70
26254;DHT22;53339;51.378;0.094;2023-08-12T05:03:55;16.60;82.60
26254;DHT22;53339;51.378;0.094;2023-08-12T05:06:23;16.70;82.60
26254;DHT22;53339;51.378;0.094;2023-08-12T05:08:56;16.70;82.50
26254;DHT22;53339;51.378;0.094;2023-08-12T05:11:29;16.70;82.50
26254;DHT22;53339;51.378;0.094;2023-08-12T05:14:01;16.70;82.40
26254;DHT22;53339;51.378;0.094;2023-08-12T05:16:29;16.70;82.40
26254;DHT22;53339;51.378;0.094;2023-08-12T05:19:03;16.70;82.30
26254;DHT22;53339;51.378;0.094;2023-08-12T05:21:31;16.70;82.30
26254;DHT22;53339;51.378;0.094;2023-08-12T05:24:02;16.70;82.30
26254;DHT22;53339;51.378;0.094;2023-08-12T05:26:30;16.70;82.30
26254;DHT22;53339;51.378;0.094;2023-08-12T05:28:58;16.70;82.20
26254;DHT22;53339;51.378;0.094;2023-08-12T05:31:26;16.70;82.20
26254;DHT22;53339;51.378;0.094;2023-08-12T05:33:56;16.70;82.10
26254;DHT22;53339;51.378;0.094;2023-08-12T05:36:24;16.70;82.20
26254;DHT22;53339;51.378;0.094;2023-08-12T05:38:57;16.60;82.00
26254;DHT22;53339;51.378;0.094;2023-08-12T05:41:25;16.60;82.00
26254;DHT22;53339;51.378;0.094;2023-08-12T05:43:56;16.60;82.00
26254;DHT22;53339;51.378;0.094;2023-08-12T05:46:25;16.60;82.00
26254;DHT22;53339;51.378;0.094;2023-08-12T05:48:57;16.50;82.10
26254;DHT22;53339;51.378;0.094;2023-08-12T05:51:27;16.60;82.10
26254;DHT22;53339;51.378;0.094;2023-08-12T05:54:01;16.60;82.10
26254;DHT22;53339;51.378;0.094;2023-08-12T05:56:29;16.60;82.10
26254;DHT22;53339;51.378;0.094;2023-08-12T05:58:57;16.60;82.10
26254;DHT22;53339;51.378;0.094;2023-08-12T06:01:25;16.60;82.00
26254;DHT22;53339;51.378;0.094;2023-08-12T06:03:54;16.70;82.10
26254;DHT22;53339;51.378;0.094;2023-08-12T06:06:24;16.70;82.00
26254;DHT22;53339;51.378;0.094;2023-08-12T06:08:56;16.70;82.00
26254;DHT22;53339;51.378;0.094;2023-08-12T06:11:24;16.80;81.90
26254;DHT22;53339;51.378;0.094;2023-08-12T06:13:53;16.80;81.80
26254;DHT22;53339;51.378;0.094;2023-08-12T06:16:25;16.90;81.80
26254;DHT22;53339;51.378;0.094;2023-08-12T06:18:53;16.90;81.80
26254;DHT22;53339;51.378;0.094;2023-08-12T06:21:21;17.00;81.80
26254;DHT22;53339;51.378;0.094;2023-08-12T06:23:51;17.00;81.80
26254;DHT22;53339;51.378;0.094;2023-08-12T06:26:19;17.10;81.80
26254;DHT22;53339;51.378;0.094;2023-08-12T06:28:56;17.20;81.80
26254;DHT22;53339;51.378;0.094;2023-08-12T06:31:24;17.20;81.70
26254;DHT22;53339;51.378;0.094;2023-08-12T06:33:52;17.30;81.60
26254;DHT22;53339;51.378;0.094;2023-08-12T06:36:23;17.30;81.40
26254;DHT22;53339;51.378;0.094;2023-08-12T06:38:51;17.30;81.50
26254;DHT22;53339;51.378;0.094;2023-08-12T06:41:19;17.30;81.40
26254;DHT22;53339;51.378;0.094;2023-08-12T06:43:49;17.30;81.30
26254;DHT22;53339;51.378;0.094;2023-08-12T06:46:22;17.40;81.30
26254;DHT22;53339;51.378;0.094;2023-08-12T06:48:58;17.40;81.20
26254;DHT22;53339;51.378;0.094;2023-08-12T06:51:27;17.50;81.00
26254;DHT22;53339;51.378;0.094;2023-08-12T06:53:55;17.50;81.00
26254;DHT22;53339;51.378;0.094;2023-08-12T06:56:32;17.50;81.00
26254;DHT22;53339;51.378;0.094;2023-08-12T06:59:08;17.60;80.70
26254;DHT22;53339;51.378;0.094;2023-08-12T07:01:37;17.70;80.50
26254;DHT22;53339;51.378;0.094;2023-08-12T07:04:05;17.70;80.40
26254;DHT22;53339;51.378;0.094;2023-08-12T07:06:37;17.80;80.30
26254;DHT22;53339;51.378;0.094;2023-08-12T07:09:09;17.80;80.30
26254;DHT22;53339;51.378;0.094;2023-08-12T07:11:38;17.90;80.00
26254;DHT22;53339;51.378;0.094;2023-08-12T07:14:07;18.00;79.80
26254;DHT22;53339;51.378;0.094;2023-08-12T07:16:35;18.00;79.50
26254;DHT22;53339;51.378;0.094;2023-08-12T07:19:08;18.10;79.10
26254;DHT22;53339;51.378;0.094;2023-08-12T07:21:39;18.10;78.90
26254;DHT22;53339;51.378;0.094;2023-08-12T07:24:13;18.20;78.80
26254;DHT22;53339;51.378;0.094;2023-08-12T07:26:46;18.20;78.40
26254;DHT22;53339;51.378;0.094;2023-08-12T07:29:21;18.20;78.10
26254;DHT22;53339;51.378;0.094;2023-08-12T07:31:57;18.30;78.00
26254;DHT22;53339;51.378;0.094;2023-08-12T07:34:26;18.40;77.50
26254;DHT22;53339;51.378;0.094;2023-08-12T07:36:58;18.40;77.00
26254;DHT22;53339;51.378;0.094;2023-08-12T07:39:28;18.50;77.30
26254;DHT22;53339;51.378;0.094;2023-08-12T07:41:56;18.60;77.20
26254;DHT22;53339;51.378;0.094;2023-08-12T07:44:28;18.60;76.80
26254;DHT22;53339;51.378;0.094;2023-08-12T07:46:58;18.70;76.50
26254;DHT22;53339;51.378;0.094;2023-08-12T07:49:27;18.70;76.10
26254;DHT22;53339;51.378;0.094;2023-08-12T07:51:55;18.80;76.40
26254;DHT22;53339;51.378;0.094;2023-08-12T07:54:36;18.90;75.90
26254;DHT22;53339;51.378;0.094;2023-08-12T07:57:05;19.00;75.20
26254;DHT22;53339;51.378;0.094;2023-08-12T07:59:41;19.00;75.20
26254;DHT22;53339;51.378;0.094;2023-08-12T08:02:10;19.00;75.60
26254;DHT22;53339;51.378;0.094;2023-08-12T08:04:42;19.10;74.80
26254;DHT22;53339;51.378;0.094;2023-08-12T08:07:18;19.20;74.90
26254;DHT22;53339;51.378;0.094;2023-08-12T08:09:51;19.30;73.40
26254;DHT22;53339;51.378;0.094;2023-08-12T08:12:20;19.30;73.20
26254;DHT22;53339;51.378;0.094;2023-08-12T08:14:53;19.30;72.70
26254;DHT22;53339;51.378;0.094;2023-08-12T08:17:22;19.30;72.80
26254;DHT22;53339;51.378;0.094;2023-08-12T08:19:51;19.40;73.00
26254;DHT22;53339;51.378;0.094;2023-08-12T08:22:20;19.50;72.80
26254;DHT22;53339;51.378;0.094;2023-08-12T08:24:57;19.60;71.80
26254;DHT22;53339;51.378;0.094;2023-08-12T08:27:27;19.70;71.40
26254;DHT22;53339;51.378;0.094;2023-08-12T08:29:55;19.70;71.10
26254;DHT22;53339;51.378;0.094;2023-08-12T08:32:24;19.80;71.00
26254;DHT22;53339;51.378;0.094;2023-08-12T08:34:56;19.80;70.80
26254;DHT22;53339;51.378;0.094;2023-08-12T08:37:25;19.90;70.80
26254;DHT22;53339;51.378;0.094;2023-08-12T08:39:54;20.00;70.20
26254;DHT22;53339;51.378;0.094;2023-08-12T08:42:26;20.00;69.40
26254;DHT22;53339;51.378;0.094;2023-08-12T08:45:00;20.00;69.60
26254;DHT22;53339;51.378;0.094;2023-08-12T08:47:45;20.10;68.40
26254;DHT22;53339;51.378;0.094;2023-08-12T08:50:15;20.10;68.60
26254;DHT22;53339;51.378;0.094;2023-08-12T08:52:48;20.10;69.00
26254;DHT22;53339;51.378;0.094;2023-08-12T08:55:30;20.20;68.00
26254;DHT22;53339;51.378;0.094;2023-08-12T08:57:58;20.20;67.30
26254;DHT22;53339;51.378;0.094;2023-08-12T09:00:29;20.20;68.60
26254;DHT22;53339;51.378;0.094;2023-08-12T09:02:58;20.30;69.50
26254;DHT22;53339;51.378;0.094;2023-08-12T09:05:31;20.40;68.30
26254;DHT22;53339;51.378;0.094;2023-08-12T09:08:16;20.30;67.40
26254;DHT22;53339;51.378;0.094;2023-08-12T09:10:48;20.30;67.40
26254;DHT22;53339;51.378;0.094;2023-08-12T09:13:24;20.30;68.20
26254;DHT22;53339;51.378;0.094;2023-08-12T09:15:57;20.40;67.20
26254;DHT22;53339;51.378;0.094;2023-08-12T09:18:29;20.50;66.50
26254;DHT22;53339;51.378;0.094;2023-08-12T09:21:04;20.70;66.70
26254;DHT22;53339;51.378;0.094;2023-08-12T09:23:39;20.70;65.20
26254;DHT22;53339;51.378;0.094;2023-08-12T09:26:16;20.90;65.10
26254;DHT22;53339;51.378;0.094;2023-08-12T09:28:46;20.90;65.60
26254;DHT22;53339;51.378;0.094;2023-08-12T09:34:04;21.00;65.10
26254;DHT22;53339;51.378;0.094;2023-08-12T09:36:36;21.10;65.70
26254;DHT22;53339;51.378;0.094;2023-08-12T09:39:08;21.20;64.40
26254;DHT22;53339;51.378;0.094;2023-08-12T09:41:43;21.20;64.50
26254;DHT22;53339;51.378;0.094;2023-08-12T09:44:15;21.20;64.60
26254;DHT22;53339;51.378;0.094;2023-08-12T09:46:46;21.20;63.60
26254;DHT22;53339;51.378;0.094;2023-08-12T09:49:24;21.20;63.20
26254;DHT22;53339;51.378;0.094;2023-08-12T09:51:57;21.20;63.20
26254;DHT22;53339;51.378;0.094;2023-08-12T09:54:31;21.30;63.40
26254;DHT22;53339;51.378;0.094;2023-08-12T09:57:04;21.30;62.30
26254;DHT22;53339;51.378;0.094;2023-08-12T09:59:38;21.20;63.00
26254;DHT22;53339;51.378;0.094;2023-08-12T10:02:15;21.20;63.00
26254;DHT22;53339;51.378;0.094;2023-08-12T10:04:53;21.20;63.20
26254;DHT22;53339;51.378;0.094;2023-08-12T10:07:28;21.30;62.60
26254;DHT22;53339;51.378;0.094;2023-08-12T10:10:05;21.30;62.40
26254;DHT22;53339;51.378;0.094;2023-08-12T10:12:42;21.30;61.10
26254;DHT22;53339;51.378;0.094;2023-08-12T10:15:15;21.30;61.20
26254;DHT22;53339;51.378;0.094;2023-08-12T10:17:48;21.20;61.50
26254;DHT22;53339;51.378;0.094;2023-08-12T10:20:25;21.20;61.50
26254;DHT22;53339;51.378;0.094;2023-08-12T10:23:14;21.20;61.90
26254;DHT22;53339;51.378;0.094;2023-08-12T10:25:43;21.40;61.30
26254;DHT22;53339;51.378;0.094;2023-08-12T10:28:15;21.50;60.50
26254;DHT22;53339;51.378;0.094;2023-08-12T10:30:56;21.60;60.40
26254;DHT22;53339;51.378;0.094;2023-08-12T10:33:29;21.70;58.50
26254;DHT22;53339;51.378;0.094;2023-08-12T10:36:07;21.70;58.50
26254;DHT22;53339;51.378;0.094;2023-08-12T10:38:39;21.70;58.40
26254;DHT22;53339;51.378;0.094;2023-08-12T10:41:21;22.00;58.40
26254;DHT22;53339;51.378;0.094;2023-08-12T10:44:02;22.20;57.70
26254;DHT22;53339;51.378;0.094;2023-08-12T10:46:50;22.30;58.50
26254;DHT22;53339;51.378;0.094;2023-08-12T10:49:25;22.50;58.30
26254;DHT22;53339;51.378;0.094;2023-08-12T10:51:55;22.60;58.10
26254;DHT22;53339;51.378;0.094;2023-08-12T10:54:26;22.70;57.90
26254;DHT22;53339;51.378;0.094;2023-08-12T10:57:08;22.80;57.50
26254;DHT22;53339;51.378;0.094;2023-08-12T10:59:51;23.00;57.90
26254;DHT22;53339;51.378;0.094;2023-08-12T11:02:27;23.00;57.30
26254;DHT22;53339;51.378;0.094;2023-08-12T11:05:00;22.90;56.20
26254;DHT22;53339;51.378;0.094;2023-08-12T11:10:23;22.60;58.40
26254;DHT22;53339;51.378;0.094;2023-08-12T11:12:56;22.60;58.10
26254;DHT22;53339;51.378;0.094;2023-08-12T11:15:47;22.70;57.40
26254;DHT22;53339;51.378;0.094;2023-08-12T11:18:27;22.70;57.30
26254;DHT22;53339;51.378;0.094;2023-08-12T11:21:01;22.80;58.10
26254;DHT22;53339;51.378;0.094;2023-08-12T11:23:36;22.90;58.20
26254;DHT22;53339;51.378;0.094;2023-08-12T11:26:08;23.10;57.90
26254;DHT22;53339;51.378;0.094;2023-08-12T11:28:43;23.30;57.30
26254;DHT22;53339;51.378;0.094;2023-08-12T11:31:16;23.40;56.70
26254;DHT22;53339;51.378;0.094;2023-08-12T11:33:48;23.30;55.70
26254;DHT22;53339;51.378;0.094;2023-08-12T11:36:17;23.10;55.40
26254;DHT22;53339;51.378;0.094;2023-08-12T11:38:45;23.00;56.80
26254;DHT22;53339;51.378;0.094;2023-08-12T11:41:18;23.00;56.90
26254;DHT22;53339;51.378;0.094;2023-08-12T11:43:46;23.00;56.90
26254;DHT22;53339;51.378;0.094;2023-08-12T11:46:16;22.80;56.60
26254;DHT22;53339;51.378;0.094;2023-08-12T11:48:44;22.60;58.00
26254;DHT22;53339;51.378;0.094;2023-08-12T11:51:17;22.40;59.00
26254;DHT22;53339;51.378;0.094;2023-08-12T11:53:54;22.30;59.20
26254;DHT22;53339;51.378;0.094;2023-08-12T11:56:24;21.70;62.90
26254;DHT22;53339;51.378;0.094;2023-08-12T11:59:05;21.00;65.40
26254;DHT22;53339;51.378;0.094;2023-08-12T12:01:36;20.60;66.80
26254;DHT22;53339;51.378;0.094;2023-08-12T12:04:05;20.50;67.50
26254;DHT22;53339;51.378;0.094;2023-08-12T12:06:42;20.60;67.70
26254;DHT22;53339;51.378;0.094;2023-08-12T12:09:12;20.90;67.70
26254;DHT22;53339;51.378;0.094;2023-08-12T12:11:42;21.20;66.80
26254;DHT22;53339;51.378;0.094;2023-08-12T12:14:13;21.60;66.70
26254;DHT22;53339;51.378;0.094;2023-08-12T12:16:52;21.90;65.30
26254;DHT22;53339;51.378;0.094;2023-08-12T12:19:22;22.10;64.00
26254;DHT22;53339;51.378;0.094;2023-08-12T12:22:10;22.20;63.90
26254;DHT22;53339;51.378;0.094;2023-08-12T12:24:46;22.30;63.80
26254;DHT22;53339;51.378;0.094;2023-08-12T12:27:17;22.60;62.90
26254;DHT22;53339;51.378;0.094;2023-08-12T12:29:52;22.80;63.40
26254;DHT22;53339;51.378;0.094;2023-08-12T12:32:33;23.10;62.90
26254;DHT22;53339;51.378;0.094;2023-08-12T12:35:03;23.50;61.50
26254;DHT22;53339;51.378;0.094;2023-08-12T12:37:31;23.70;61.00
26254;DHT22;53339;51.378;0.094;2023-08-12T12:40:06;24.00;60.00
26254;DHT22;53339;51.378;0.094;2023-08-12T12:42:44;24.20;59.40
26254;DHT22;53339;51.378;0.094;2023-08-12T12:45:23;24.40;59.10
26254;DHT22;53339;51.378;0.094;2023-08-12T12:47:57;24.90;56.90
26254;DHT22;53339;51.378;0.094;2023-08-12T12:50:30;25.10;55.60
26254;DHT22;53339;51.378;0.094;2023-08-12T12:53:10;25.00;56.40
26254;DHT22;53339;51.378;0.094;2023-08-12T12:55:46;25.30;55.70
26254;DHT22;53339;51.378;0.094;2023-08-12T12:58:16;25.80;54.70
26254;DHT22;53339;51.378;0.094;2023-08-12T13:00:51;26.00;53.30
26254;DHT22;53339;51.378;0.094;2023-08-12T13:03:22;25.40;53.20
26254;DHT22;53339;51.378;0.094;2023-08-12T13:06:08;24.70;54.70
26254;DHT22;53339;51.378;0.094;2023-08-12T13:08:36;23.90;56.60
26254;DHT22;53339;51.378;0.094;2023-08-12T13:11:15;23.30;57.90
26254;DHT22;53339;51.378;0.094;2023-08-12T13:13:43;23.00;59.20
26254;DHT22;53339;51.378;0.094;2023-08-12T13:16:19;23.00;59.40
26254;DHT22;53339;51.378;0.094;2023-08-12T13:18:50;22.80;59.50
26254;DHT22;53339;51.378;0.094;2023-08-12T13:21:25;22.60;59.90
26254;DHT22;53339;51.378;0.094;2023-08-12T13:23:56;22.50;60.30
26254;DHT22;53339;51.378;0.094;2023-08-12T13:26:25;22.70;60.60
26254;DHT22;53339;51.378;0.094;2023-08-12T13:28:54;23.20;59.90
26254;DHT22;53339;51.378;0.094;2023-08-12T13:31:27;24.10;57.40
26254;DHT22;53339;51.378;0.094;2023-08-12T13:34:00;24.30;55.20
26254;DHT22;53339;51.378;0.094;2023-08-12T13:36:32;24.00;54.50
26254;DHT22;53339;51.378;0.094;2023-08-12T13:39:09;23.50;55.20
26254;DHT22;53339;51.378;0.094;2023-08-12T13:41:44;23.00;56.70
26254;DHT22;53339;51.378;0.094;2023-08-12T13:44:16;22.70;58.60
26254;DHT22;53339;51.378;0.094;2023-08-12T13:47:05;22.50;59.70
26254;DHT22;53339;51.378;0.094;2023-08-12T13:49:36;22.40;60.20
26254;DHT22;53339;51.378;0.094;2023-08-12T13:52:09;22.60;60.50
26254;DHT22;53339;51.378;0.094;2023-08-12T13:54:40;22.90;60.00
26254;DHT22;53339;51.378;0.094;2023-08-12T13:57:14;23.10;58.70
26254;DHT22;53339;51.378;0.094;2023-08-12T13:59:46;22.90;58.90
26254;DHT22;53339;51.378;0.094;2023-08-12T14:02:21;22.60;58.70
26254;DHT22;53339;51.378;0.094;2023-08-12T14:04:50;22.40;59.80
26254;DHT22;53339;51.378;0.094;2023-08-12T14:07:36;22.20;60.10
26254;DHT22;53339;51.378;0.094;2023-08-12T14:10:05;22.10;59.80
26254;DHT22;53339;51.378;0.094;2023-08-12T14:12:34;22.00;59.20
26254;DHT22;53339;51.378;0.094;2023-08-12T14:15:03;21.90;60.00
26254;DHT22;53339;51.378;0.094;2023-08-12T14:17:36;22.10;60.00
26254;DHT22;53339;51.378;0.094;2023-08-12T14:20:06;22.30;59.80
26254;DHT22;53339;51.378;0.094;2023-08-12T14:22:36;22.40;60.10
26254;DHT22;53339;51.378;0.094;2023-08-12T14:25:08;22.50;60.40
26254;DHT22;53339;51.378;0.094;2023-08-12T14:27:37;22.60;60.70
26254;DHT22;53339;51.378;0.094;2023-08-12T14:30:24;22.50;61.30
26254;DHT22;53339;51.378;0.094;2023-08-12T14:32:56;22.50;61.30
26254;DHT22;53339;51.378;0.094;2023-08-12T14:35:26;22.50;61.60
26254;DHT22;53339;51.378;0.094;2023-08-12T14:37:57;22.60;61.90
26254;DHT22;53339;51.378;0.094;2023-08-12T14:40:26;22.60;61.90
26254;DHT22;53339;51.378;0.094;2023-08-12T14:42:56;22.80;61.90
26254;DHT22;53339;51.378;0.094;2023-08-12T14:45:24;22.90;61.30
26254;DHT22;53339;51.378;0.094;2023-08-12T14:47:53;23.00;60.70
26254;DHT22;53339;51.378;0.094;2023-08-12T14:50:21;23.00;60.90
26254;DHT22;53339;51.378;0.094;2023-08-12T14:52:50;23.00;60.70
26254;DHT22;53339;51.378;0.094;2023-08-12T14:55:21;22.90;61.00
26254;DHT22;53339;51.378;0.094;2023-08-12T14:57:51;22.80;61.10
26254;DHT22;53339;51.378;0.094;2023-08-12T15:00:25;22.60;61.40
26254;DHT22;53339;51.378;0.094;2023-08-12T15:02:57;22.30;61.90
26254;DHT22;53339;51.378;0.094;2023-08-12T15:05:34;22.20;62.50
26254;DHT22;53339;51.378;0.094;2023-08-12T15:08:11;22.00;63.10
26254;DHT22;53339;51.378;0.094;2023-08-12T15:10:40;21.90;63.50
26254;DHT22;53339;51.378;0.094;2023-08-12T15:13:10;21.70;64.40
26254;DHT22;53339;51.378;0.094;2023-08-12T15:15:46;21.50;65.50
26254;DHT22;53339;51.378;0.094;2023-08-12T15:18:15;21.30;66.50
26254;DHT22;53339;51.378;0.094;2023-08-12T15:20:45;21.30;65.90
26254;DHT22;53339;51.378;0.094;2023-08-12T15:23:20;21.40;65.10
26254;DHT22;53339;51.378;0.094;2023-08-12T15:25:50;21.40;65.20
26254;DHT22;53339;51.378;0.094;2023-08-12T15:28:20;21.50;65.40
26254;DHT22;53339;51.378;0.094;2023-08-12T15:31:04;21.70;65.50
26254;DHT22;53339;51.378;0.094;2023-08-12T15:33:39;22.00;65.10
26254;DHT22;53339;51.378;0.094;2023-08-12T15:36:07;22.40;64.10
26254;DHT22;53339;51.378;0.094;2023-08-12T15:38:36;22.60;64.00
26254;DHT22;53339;51.378;0.094;2023-08-12T15:41:17;23.30;62.80
26254;DHT22;53339;51.378;0.094;2023-08-12T15:43:47;24.30;61.50
26254;DHT22;53339;51.378;0.094;2023-08-12T15:46:16;25.40;58.50
26254;DHT22;53339;51.378;0.094;2023-08-12T15:48:57;26.10;54.30
26254;DHT22;53339;51.378;0.094;2023-08-12T15:51:26;25.90;55.50
26254;DHT22;53339;51.378;0.094;2023-08-12T15:53:58;25.80;55.00
26254;DHT22;53339;51.378;0.094;2023-08-12T15:56:42;25.60;53.60
26254;DHT22;53339;51.378;0.094;2023-08-12T15:59:14;25.30;54.70
26254;DHT22;53339;51.378;0.094;2023-08-12T16:01:46;25.40;55.60
26254;DHT22;53339;51.378;0.094;2023-08-12T16:04:17;25.50;54.20
26254;DHT22;53339;51.378;0.094;2023-08-12T16:06:55;25.40;54.30
26254;DHT22;53339;51.378;0.094;2023-08-12T16:09:24;25.00;54.80